createdAt,value
2023-04-19T00:00:41.603Z,5.08
2023-04-19T00:05:54.410Z,5.08
2023-04-19T00:10:56.983Z,5.06
2023-04-19T00:15:59.659Z,5.05
2023-04-19T00:21:02.849Z,5.01
2023-04-19T00:26:05.550Z,4.95
2023-04-19T00:31:08.187Z,4.88
2023-04-19T00:36:10.935Z,4.81
2023-04-19T00:41:13.511Z,4.80
2023-04-19T00:46:16.236Z,4.81
2023-04-19T00:51:19.488Z,4.83
2023-04-19T00:56:22.697Z,4.85
2023-04-19T01:01:25.269Z,4.84
2023-04-19T01:06:29.907Z,4.82
2023-04-19T01:11:32.441Z,4.83
2023-04-19T01:16:36.346Z,4.90
2023-04-19T01:21:40.117Z,4.97
2023-04-19T01:26:42.654Z,5.00
2023-04-19T01:31:49.373Z,5.03
2023-04-19T01:36:51.993Z,5.04
2023-04-19T01:41:54.703Z,5.03
2023-04-19T01:46:57.309Z,5.02
2023-04-19T01:52:00.654Z,5.04
2023-04-19T01:57:03.545Z,5.12
2023-04-19T02:02:09.425Z,5.20
2023-04-19T02:07:12.080Z,5.24
2023-04-19T02:12:14.624Z,5.26
2023-04-19T02:17:17.484Z,5.27
2023-04-19T02:22:20.634Z,5.27
2023-04-19T02:27:23.153Z,5.29
2023-04-19T02:32:25.924Z,5.31
2023-04-19T02:37:28.453Z,5.31
2023-04-19T02:42:30.954Z,5.26
2023-04-19T02:47:33.527Z,5.19
2023-04-19T02:52:36.171Z,5.15
2023-04-19T02:57:38.791Z,5.16
2023-04-19T03:02:43.624Z,5.17
2023-04-19T03:07:46.198Z,5.18
2023-04-19T03:12:48.757Z,5.17
2023-04-19T03:17:51.335Z,5.18
2023-04-19T03:22:53.936Z,5.21
2023-04-19T03:27:56.604Z,5.23
2023-04-19T03:33:00.207Z,5.26
2023-04-19T03:38:02.902Z,5.28
2023-04-19T03:43:05.462Z,5.29
2023-04-19T03:48:07.993Z,5.28
2023-04-19T03:53:10.707Z,5.27
2023-04-19T03:58:13.243Z,5.28
2023-04-19T04:03:15.976Z,5.27
2023-04-19T04:08:18.784Z,5.25
2023-04-19T04:13:21.290Z,5.26
2023-04-19T04:18:23.976Z,5.23
2023-04-19T04:23:26.849Z,5.13
2023-04-19T04:28:29.510Z,5.01
2023-04-19T04:33:32.119Z,4.90
2023-04-19T04:38:34.701Z,4.82
2023-04-19T04:43:38.358Z,4.77
2023-04-19T04:48:40.864Z,4.71
2023-04-19T04:53:43.405Z,4.69
2023-04-19T04:58:45.982Z,4.73
2023-04-19T05:03:48.515Z,4.90
2023-04-19T05:08:51.031Z,5.22
2023-04-19T05:13:53.566Z,5.54
2023-04-19T05:18:56.409Z,5.59
2023-04-19T05:23:58.934Z,5.56
2023-04-19T05:29:01.537Z,5.56
2023-04-19T05:34:04.155Z,5.58
2023-04-19T05:39:06.716Z,5.69
2023-04-19T05:44:09.301Z,5.82
2023-04-19T05:49:11.870Z,5.95
2023-04-19T05:54:14.841Z,6.16
2023-04-19T05:59:17.757Z,6.52
2023-04-19T06:04:20.625Z,6.79
2023-04-19T06:09:25.735Z,7.06
2023-04-19T06:14:29.366Z,7.31
2023-04-19T06:19:33.957Z,7.60
2023-04-19T06:24:36.752Z,7.93
2023-04-19T06:29:39.611Z,8.11
2023-04-19T06:34:42.482Z,8.26
2023-04-19T06:39:45.131Z,8.36
2023-04-19T06:44:47.827Z,8.25
2023-04-19T06:49:50.379Z,8.14
2023-04-19T06:54:52.914Z,8.15
2023-04-19T06:59:55.628Z,8.02
2023-04-19T07:22:09.099Z,7.29
2023-04-19T07:27:11.079Z,7.25
2023-04-19T07:32:16.288Z,7.16
2023-04-19T07:37:19.340Z,7.14
2023-04-19T07:42:21.972Z,7.27
2023-04-19T07:47:24.731Z,7.46
2023-04-19T07:52:27.419Z,7.59
2023-04-19T07:57:30.434Z,8.04
2023-04-19T08:02:33.491Z,8.63
2023-04-19T08:07:36.699Z,8.92
2023-04-19T08:12:50.409Z,8.79
2023-04-19T08:18:04.903Z,8.26
2023-04-19T08:23:20.608Z,7.87
2023-04-19T08:28:25.200Z,7.66
2023-04-19T08:33:28.896Z,7.45
2023-04-19T08:38:31.471Z,7.39
2023-04-19T08:43:38.066Z,7.48
2023-04-19T08:48:41.733Z,7.35
2023-04-19T08:53:44.700Z,7.23
2023-04-19T09:04:01.116Z,7.06
2023-04-19T09:14:26.440Z,7.45
2023-04-19T09:19:45.932Z,7.47
2023-04-19T09:30:01.625Z,7.61
2023-04-19T09:35:04.859Z,7.56
2023-04-19T09:40:24.567Z,7.45
2023-04-19T09:45:30.502Z,7.31
2023-04-19T09:50:46.201Z,7.25
2023-04-19T09:56:02.313Z,7.40
2023-04-19T10:01:14.766Z,7.67
2023-04-19T10:11:27.536Z,7.79
2023-04-19T10:16:32.900Z,7.65
2023-04-19T10:21:35.994Z,7.76
2023-04-19T10:27:07.482Z,7.98
2023-04-19T10:32:14.632Z,8.06
2023-04-19T10:37:17.190Z,8.23
2023-04-19T10:42:19.871Z,8.50
2023-04-19T10:47:44.348Z,8.82
2023-04-19T10:52:46.990Z,9.28
2023-04-19T10:58:06.634Z,9.73
2023-04-19T11:03:43.273Z,10.08
2023-04-19T11:08:47.106Z,10.29
2023-04-19T11:13:50.023Z,10.23
2023-04-19T11:18:52.543Z,10.21
2023-04-19T11:24:11.490Z,10.24
2023-04-19T11:29:14.445Z,10.33
2023-04-19T11:34:17.517Z,10.45
2023-04-19T11:39:21.337Z,10.38
2023-04-19T11:44:24.034Z,10.17
2023-04-19T11:49:28.302Z,10.20
2023-04-19T11:54:31.358Z,10.03
2023-04-19T11:59:36.576Z,9.83
2023-04-19T12:04:40.092Z,9.85
2023-04-19T12:09:43.193Z,10.22
2023-04-19T12:14:52.652Z,10.47
2023-04-19T12:19:55.242Z,10.62
2023-04-19T12:24:57.786Z,10.69
2023-04-19T12:30:00.654Z,10.88
2023-04-19T12:35:03.559Z,10.93
2023-04-19T12:40:07.064Z,10.91
2023-04-19T12:45:10.698Z,10.92
2023-04-19T12:50:14.758Z,11.09
2023-04-19T12:55:17.417Z,11.20
2023-04-19T13:00:20.147Z,11.24
2023-04-19T13:05:22.918Z,11.20
2023-04-19T13:10:25.647Z,11.42
2023-04-19T13:15:29.325Z,11.60
2023-04-19T13:20:32.071Z,11.74
2023-04-19T13:25:36.160Z,11.89
2023-04-19T13:30:38.675Z,12.32
2023-04-19T13:35:41.267Z,12.71
2023-04-19T13:40:44.822Z,12.94
2023-04-19T13:45:47.466Z,13.67
2023-04-19T13:50:51.479Z,14.33
2023-04-19T13:55:54.464Z,14.51
2023-04-19T14:00:57.309Z,14.22
2023-04-19T14:06:00.150Z,14.51
2023-04-19T14:11:02.893Z,15.21
2023-04-19T14:16:06.128Z,15.80
2023-04-19T14:21:09.665Z,15.95
2023-04-19T14:26:12.320Z,16.09
2023-04-19T14:31:14.884Z,16.05
2023-04-19T14:36:17.481Z,16.34
2023-04-19T14:41:20.299Z,17.38
2023-04-19T14:46:22.966Z,17.83
2023-04-19T14:51:25.596Z,18.84
2023-04-19T14:56:28.593Z,19.96
2023-04-19T15:01:31.200Z,20.50
2023-04-19T15:06:33.991Z,20.80
2023-04-19T15:11:36.902Z,21.69
2023-04-19T15:16:39.578Z,22.48
2023-04-19T15:21:42.609Z,22.99
2023-04-19T15:26:45.190Z,23.32
2023-04-19T15:31:47.832Z,23.75
2023-04-19T15:36:50.880Z,24.19
2023-04-19T15:41:53.382Z,24.41
2023-04-19T15:46:56.165Z,24.35
2023-04-19T15:51:59.291Z,24.43
2023-04-19T15:57:01.999Z,23.98
2023-04-19T16:02:04.628Z,23.17
2023-04-19T16:07:07.274Z,22.47
2023-04-19T16:12:09.909Z,22.27
2023-04-19T16:17:12.454Z,21.76
2023-04-19T16:22:14.987Z,20.67
2023-04-19T16:27:17.562Z,19.41
2023-04-19T16:32:20.163Z,18.53
2023-04-19T16:37:22.744Z,17.77
2023-04-19T16:42:25.356Z,17.10
2023-04-19T16:47:30.078Z,16.63
2023-04-19T16:52:34.543Z,16.40
2023-04-19T16:57:37.913Z,16.05
2023-04-19T17:02:40.871Z,15.66
2023-04-19T17:07:43.902Z,15.24
2023-04-19T17:12:46.464Z,14.56
2023-04-19T17:17:49.079Z,13.77
2023-04-19T17:22:51.833Z,13.14
2023-04-19T17:27:54.681Z,12.68
2023-04-19T17:32:57.311Z,12.34
2023-04-19T17:37:59.919Z,12.06
2023-04-19T17:43:02.828Z,11.85
2023-04-19T17:48:05.887Z,11.68
2023-04-19T17:53:08.519Z,11.53
2023-04-19T17:58:11.138Z,11.40
2023-04-19T18:03:14.020Z,11.26
2023-04-19T18:08:16.703Z,11.14
2023-04-19T18:13:19.272Z,11.06
2023-04-19T18:18:21.911Z,11.03
2023-04-19T18:23:24.582Z,11.02
2023-04-19T18:28:27.656Z,10.99
2023-04-19T18:33:30.186Z,10.92
2023-04-19T18:38:33.097Z,10.84
2023-04-19T18:43:36.244Z,10.78
2023-04-19T18:48:39.467Z,10.74
2023-04-19T18:53:43.800Z,10.72
2023-04-19T18:58:49.109Z,10.71
2023-04-19T19:04:10.660Z,10.71
2023-04-19T19:09:19.026Z,10.74
2023-04-19T19:14:25.317Z,10.74
2023-04-19T19:19:28.503Z,10.71
2023-04-19T19:24:31.186Z,10.65
2023-04-19T19:29:36.533Z,10.61
2023-04-19T19:34:51.265Z,10.57
2023-04-19T19:40:02.790Z,10.56
2023-04-19T19:45:08.875Z,10.53
2023-04-19T19:50:57.688Z,10.49
2023-04-19T19:55:36.288Z,10.47
2023-04-19T20:00:46.872Z,10.46
2023-04-19T20:05:50.302Z,10.43
2023-04-19T20:10:53.064Z,10.37
2023-04-19T20:15:55.687Z,10.34
2023-04-19T20:20:59.542Z,10.31
2023-04-19T20:26:02.362Z,10.26
2023-04-19T20:31:06.394Z,10.18
2023-04-19T20:36:09.771Z,10.07
2023-04-19T20:41:12.495Z,10.00
2023-04-19T20:46:16.869Z,9.98
2023-04-19T20:51:19.723Z,9.97
2023-04-19T20:56:23.272Z,9.99
2023-04-19T21:01:26.146Z,10.03
2023-04-19T21:06:28.916Z,10.06
2023-04-19T21:11:31.407Z,10.08
2023-04-19T21:16:35.583Z,10.14
2023-04-19T21:21:38.160Z,10.17
2023-04-19T21:26:41.754Z,10.12
2023-04-19T21:31:44.409Z,10.08
2023-04-19T21:36:47.031Z,10.05
2023-04-19T21:41:49.695Z,10.03
2023-04-19T21:46:52.787Z,10.00
2023-04-19T21:51:56.897Z,9.99
2023-04-19T21:57:00.529Z,10.00
2023-04-19T22:02:06.271Z,10.01
2023-04-19T22:07:09.913Z,9.99
2023-04-19T22:12:13.452Z,9.97
2023-04-19T22:17:18.709Z,9.97
2023-04-19T22:22:21.572Z,10.01
2023-04-19T22:27:25.041Z,10.04
2023-04-19T22:32:27.618Z,10.05
2023-04-19T22:37:30.334Z,10.04
2023-04-19T22:42:32.908Z,10.05
2023-04-19T22:47:37.185Z,10.06
2023-04-19T22:52:41.541Z,10.02
2023-04-19T22:57:44.722Z,9.94
2023-04-19T23:02:47.487Z,9.87
2023-04-19T23:07:50.264Z,9.82
2023-04-19T23:12:56.533Z,9.81
2023-04-19T23:17:59.524Z,9.82
2023-04-19T23:23:02.171Z,9.84
2023-04-19T23:28:04.727Z,9.83
2023-04-19T23:33:07.340Z,9.83
2023-04-19T23:38:09.924Z,9.82
2023-04-19T23:43:12.610Z,9.81
2023-04-19T23:48:15.517Z,9.79
2023-04-19T23:53:18.073Z,9.79
2023-04-19T23:58:20.937Z,9.80
